createdAt,value
2023-05-10T00:00:03.205Z,14.57
2023-05-10T00:00:15.775Z,14.56
2023-05-10T00:00:28.314Z,14.54
2023-05-10T00:00:41.275Z,14.54
2023-05-10T00:00:53.236Z,14.54
2023-05-10T00:01:05.173Z,14.56
2023-05-10T00:01:17.090Z,14.60
2023-05-10T00:01:29.092Z,14.61
2023-05-10T00:01:41.365Z,14.63
2023-05-10T00:01:53.292Z,14.62
2023-05-10T00:02:05.364Z,14.55
2023-05-10T00:02:17.304Z,14.57
2023-05-10T00:02:29.342Z,14.54
2023-05-10T00:02:41.585Z,14.51
2023-05-10T00:02:53.770Z,14.52
2023-05-10T00:03:05.892Z,14.53
2023-05-10T00:03:17.991Z,14.55
2023-05-10T00:03:30.084Z,14.55
2023-05-10T00:03:42.225Z,14.57
2023-05-10T00:03:54.441Z,14.57
2023-05-10T00:04:06.416Z,14.53
2023-05-10T00:04:18.408Z,14.54
2023-05-10T00:04:30.413Z,14.53
2023-05-10T00:04:42.328Z,14.46
2023-05-10T00:04:54.254Z,14.47
2023-05-10T00:05:06.546Z,14.44
2023-05-10T00:05:18.620Z,14.43
2023-05-10T00:05:30.550Z,14.46
2023-05-10T00:05:42.492Z,14.39
2023-05-10T00:05:54.497Z,14.35
2023-05-10T00:06:06.650Z,14.37
2023-05-10T00:06:18.803Z,14.30
2023-05-10T00:06:31.163Z,14.32
2023-05-10T00:06:43.140Z,14.33
2023-05-10T00:06:55.815Z,14.34
2023-05-10T00:07:07.822Z,14.38
2023-05-10T00:07:22.332Z,14.35
2023-05-10T00:07:34.256Z,14.35
2023-05-10T00:07:46.242Z,14.37
2023-05-10T00:07:58.206Z,14.38
2023-05-10T00:08:10.266Z,14.33
2023-05-10T00:08:22.250Z,14.37
2023-05-10T00:08:34.148Z,14.35
2023-05-10T00:08:46.328Z,14.36
2023-05-10T00:08:58.444Z,14.41
2023-05-10T00:09:10.350Z,14.40
2023-05-10T00:09:22.253Z,14.36
2023-05-10T00:09:34.206Z,14.37
2023-05-10T00:09:46.145Z,14.36
2023-05-10T00:09:58.088Z,14.35
2023-05-10T00:10:10.366Z,14.34
2023-05-10T00:10:23.603Z,14.27
2023-05-10T00:10:35.558Z,14.26
2023-05-10T00:10:47.614Z,14.22
2023-05-10T00:10:59.526Z,14.28
2023-05-10T00:11:11.533Z,14.28
2023-05-10T00:11:23.529Z,14.31
2023-05-10T00:11:35.721Z,14.29
2023-05-10T00:11:47.681Z,14.32
2023-05-10T00:11:59.881Z,14.31
2023-05-10T00:12:11.901Z,14.28
2023-05-10T00:12:23.840Z,14.26
2023-05-10T00:12:35.827Z,14.23
2023-05-10T00:12:47.877Z,14.20
2023-05-10T00:13:00.215Z,14.18
2023-05-10T00:13:13.437Z,14.12
2023-05-10T00:13:25.623Z,14.16
2023-05-10T00:13:37.736Z,14.21
2023-05-10T00:13:49.771Z,14.17
2023-05-10T00:14:01.716Z,14.18
2023-05-10T00:14:13.625Z,14.23
2023-05-10T00:14:25.598Z,14.27
2023-05-10T00:14:37.494Z,14.27
2023-05-10T00:14:49.384Z,14.22
2023-05-10T00:15:01.314Z,14.22
2023-05-10T00:15:13.216Z,14.21
2023-05-10T00:15:25.157Z,14.23
2023-05-10T00:15:37.061Z,14.24
2023-05-10T00:15:49.008Z,14.22
2023-05-10T00:16:00.996Z,14.22
2023-05-10T00:16:14.020Z,14.23
2023-05-10T00:16:26.243Z,14.22
2023-05-10T00:16:38.795Z,14.20
2023-05-10T00:16:50.960Z,14.21
2023-05-10T00:17:02.967Z,14.22
2023-05-10T00:17:16.256Z,14.23
2023-05-10T00:17:30.886Z,14.25
2023-05-10T00:17:42.857Z,14.24
2023-05-10T00:17:54.858Z,14.21
2023-05-10T00:18:06.826Z,14.17
2023-05-10T00:18:18.858Z,14.17
2023-05-10T00:18:31.575Z,14.15
2023-05-10T00:18:43.490Z,14.17
2023-05-10T00:18:55.429Z,14.17
2023-05-10T00:19:07.404Z,14.19
2023-05-10T00:19:19.633Z,14.22
2023-05-10T00:19:31.596Z,14.23
2023-05-10T00:19:43.520Z,14.25
2023-05-10T00:19:55.757Z,14.26
2023-05-10T00:20:08.128Z,14.29
2023-05-10T00:20:20.068Z,14.24
2023-05-10T00:20:32.195Z,14.23
2023-05-10T00:20:44.155Z,14.26
2023-05-10T00:20:56.055Z,14.29
2023-05-10T00:21:08.035Z,14.31
2023-05-10T00:21:20.119Z,14.33
2023-05-10T00:21:33.100Z,14.30
2023-05-10T00:21:46.114Z,14.25
2023-05-10T00:21:58.153Z,14.22
2023-05-10T00:22:10.109Z,14.24
2023-05-10T00:22:25.159Z,14.18
2023-05-10T00:22:37.168Z,14.13
2023-05-10T00:22:49.671Z,14.09
2023-05-10T00:23:01.720Z,14.13
2023-05-10T00:23:13.668Z,14.15
2023-05-10T00:23:25.710Z,14.10
2023-05-10T00:23:38.372Z,14.11
2023-05-10T00:23:50.347Z,14.12
2023-05-10T00:24:02.284Z,14.13
2023-05-10T00:24:14.243Z,14.12
2023-05-10T00:24:26.229Z,14.15
2023-05-10T00:24:38.137Z,14.17
2023-05-10T00:24:50.122Z,14.21
2023-05-10T00:25:02.418Z,14.18
2023-05-10T00:25:14.439Z,14.20
2023-05-10T00:25:27.380Z,14.19
2023-05-10T00:25:39.308Z,14.22
2023-05-10T00:25:51.351Z,14.28
2023-05-10T00:26:03.336Z,14.27
2023-05-10T00:26:15.849Z,14.25
2023-05-10T00:26:27.812Z,14.22
2023-05-10T00:26:39.711Z,14.21
2023-05-10T00:26:51.629Z,14.20
2023-05-10T00:27:04.965Z,14.17
2023-05-10T00:27:16.852Z,14.18
2023-05-10T00:27:28.728Z,14.17
2023-05-10T00:27:42.552Z,14.16
2023-05-10T00:27:56.180Z,14.13
2023-05-10T00:28:08.169Z,14.14
2023-05-10T00:28:20.128Z,14.16
2023-05-10T00:28:32.060Z,14.14
2023-05-10T00:28:46.304Z,14.17
2023-05-10T00:28:59.442Z,14.16
2023-05-10T00:29:11.444Z,14.11
2023-05-10T00:29:23.374Z,14.15
2023-05-10T00:29:35.418Z,14.13
2023-05-10T00:29:47.567Z,14.15
2023-05-10T00:30:03.142Z,14.15
2023-05-10T00:30:15.260Z,14.17
2023-05-10T00:30:27.732Z,14.14
2023-05-10T00:30:42.204Z,14.16
2023-05-10T00:30:55.597Z,14.13
2023-05-10T00:31:07.513Z,14.04
2023-05-10T00:31:19.550Z,14.07
2023-05-10T00:31:31.521Z,14.02
2023-05-10T00:31:43.553Z,14.02
2023-05-10T00:31:55.652Z,14.04
2023-05-10T00:32:07.661Z,14.01
2023-05-10T00:32:19.695Z,14.02
2023-05-10T00:32:31.717Z,13.96
2023-05-10T00:32:44.410Z,13.97
2023-05-10T00:32:56.398Z,13.96
2023-05-10T00:33:08.407Z,13.91
2023-05-10T00:33:20.414Z,13.85
2023-05-10T00:33:32.350Z,13.86
2023-05-10T00:33:44.948Z,13.88
2023-05-10T00:33:56.873Z,13.89
2023-05-10T00:34:08.801Z,13.86
2023-05-10T00:34:20.742Z,13.88
2023-05-10T00:34:32.827Z,13.84
2023-05-10T00:34:44.732Z,13.89
2023-05-10T00:34:56.690Z,13.89
2023-05-10T00:35:09.431Z,13.93
2023-05-10T00:35:22.545Z,14.02
2023-05-10T00:35:34.845Z,14.02
2023-05-10T00:35:46.779Z,14.02
2023-05-10T00:35:59.767Z,14.05
2023-05-10T00:36:11.812Z,14.07
2023-05-10T00:36:23.885Z,14.02
2023-05-10T00:36:35.780Z,14.05
2023-05-10T00:36:47.770Z,14.05
2023-05-10T00:36:59.658Z,14.08
2023-05-10T00:37:11.560Z,14.07
2023-05-10T00:37:23.456Z,14.07
2023-05-10T00:37:37.632Z,14.07
2023-05-10T00:37:50.812Z,14.09
2023-05-10T00:38:02.741Z,14.07
2023-05-10T00:38:15.261Z,13.97
2023-05-10T00:38:27.197Z,14.01
2023-05-10T00:38:39.106Z,14.04
2023-05-10T00:38:51.238Z,14.02
2023-05-10T00:39:04.508Z,13.97
2023-05-10T00:39:16.469Z,14.00
2023-05-10T00:39:29.506Z,14.02
2023-05-10T00:39:41.456Z,13.96
2023-05-10T00:39:53.455Z,13.92
2023-05-10T00:40:06.792Z,13.94
2023-05-10T00:40:18.951Z,13.93
2023-05-10T00:40:31.563Z,13.95
2023-05-10T00:40:43.744Z,13.90
2023-05-10T00:40:55.770Z,13.88
2023-05-10T00:41:07.777Z,13.91
2023-05-10T00:41:19.765Z,13.94
2023-05-10T00:41:34.696Z,13.95
2023-05-10T00:41:46.831Z,13.94
2023-05-10T00:41:58.777Z,13.97
2023-05-10T00:42:11.003Z,14.01
2023-05-10T00:42:23.192Z,14.02
2023-05-10T00:42:35.221Z,13.98
2023-05-10T00:42:47.178Z,14.00
2023-05-10T00:43:00.296Z,14.01
2023-05-10T00:43:12.271Z,14.05
2023-05-10T00:43:24.171Z,14.02
2023-05-10T00:43:36.692Z,14.01
2023-05-10T00:43:49.221Z,13.96
2023-05-10T00:44:02.906Z,13.97
2023-05-10T00:44:14.856Z,14.02
2023-05-10T00:44:26.900Z,14.02
2023-05-10T00:44:38.935Z,14.05
2023-05-10T00:44:51.029Z,14.05
2023-05-10T00:45:03.081Z,14.08
2023-05-10T00:45:15.027Z,14.08
2023-05-10T00:45:29.595Z,14.10
2023-05-10T00:45:42.354Z,14.12
2023-05-10T00:45:54.853Z,14.10
2023-05-10T00:46:07.424Z,14.11
2023-05-10T00:46:19.421Z,14.14
2023-05-10T00:46:31.805Z,14.07
2023-05-10T00:46:43.738Z,14.04
2023-05-10T00:46:55.624Z,14.05
2023-05-10T00:47:08.254Z,14.07
2023-05-10T00:47:20.257Z,14.09
2023-05-10T00:47:35.569Z,14.13
2023-05-10T00:47:47.616Z,14.14
2023-05-10T00:48:02.084Z,14.14
2023-05-10T00:48:14.289Z,14.14
2023-05-10T00:48:26.265Z,14.15
2023-05-10T00:48:38.167Z,14.14
2023-05-10T00:48:50.269Z,14.15
2023-05-10T00:49:02.474Z,14.14
2023-05-10T00:49:14.520Z,14.12
2023-05-10T00:49:26.829Z,14.07
2023-05-10T00:49:38.904Z,14.05
2023-05-10T00:49:51.298Z,14.07
2023-05-10T00:50:03.873Z,14.04
2023-05-10T00:50:16.811Z,14.05
2023-05-10T00:50:29.609Z,14.06
2023-05-10T00:50:41.587Z,14.10
2023-05-10T00:50:53.631Z,14.10
2023-05-10T00:51:05.841Z,14.07
2023-05-10T00:51:17.967Z,14.08
2023-05-10T00:51:30.043Z,14.04
2023-05-10T00:51:43.814Z,14.04
2023-05-10T00:51:55.809Z,14.07
2023-05-10T00:52:07.742Z,14.08
2023-05-10T00:52:20.128Z,14.11
2023-05-10T00:52:32.409Z,14.11
2023-05-10T00:52:44.708Z,14.13
2023-05-10T00:52:56.726Z,14.11
2023-05-10T00:53:11.266Z,14.10
2023-05-10T00:53:23.200Z,14.08
2023-05-10T00:53:35.955Z,14.08
2023-05-10T00:53:48.970Z,14.08
2023-05-10T00:54:01.241Z,14.11
2023-05-10T00:54:14.846Z,14.12
2023-05-10T00:54:26.989Z,14.13
2023-05-10T00:54:39.129Z,14.16
2023-05-10T00:54:52.993Z,14.16
2023-05-10T00:55:06.190Z,14.16
2023-05-10T00:55:19.079Z,14.14
2023-05-10T00:55:31.483Z,14.10
2023-05-10T00:55:45.807Z,14.13
2023-05-10T00:55:57.939Z,14.16
2023-05-10T00:56:09.901Z,14.12
2023-05-10T00:56:23.940Z,14.11
2023-05-10T00:56:36.449Z,14.15
2023-05-10T00:56:50.288Z,14.17
2023-05-10T00:57:02.271Z,14.19
2023-05-10T00:57:14.282Z,14.22
2023-05-10T00:57:26.520Z,14.24
2023-05-10T00:57:38.558Z,14.27
2023-05-10T00:57:50.572Z,14.31
2023-05-10T00:58:02.843Z,14.34
2023-05-10T00:58:15.266Z,14.35
2023-05-10T00:58:29.214Z,14.36
2023-05-10T00:58:41.412Z,14.35
2023-05-10T00:58:53.428Z,14.34
2023-05-10T00:59:05.339Z,14.38
2023-05-10T00:59:18.683Z,14.38
2023-05-10T00:59:30.965Z,14.42
2023-05-10T00:59:43.592Z,14.36
2023-05-10T00:59:55.606Z,14.38
2023-05-10T01:00:08.598Z,14.35
2023-05-10T01:00:20.977Z,14.35
2023-05-10T01:00:34.351Z,14.35
2023-05-10T01:00:47.482Z,14.36
2023-05-10T01:01:00.349Z,14.38
2023-05-10T01:01:12.980Z,14.38
2023-05-10T01:01:25.645Z,14.39
2023-05-10T01:01:38.274Z,14.38
2023-05-10T01:01:50.324Z,14.38
2023-05-10T01:02:03.064Z,14.40
2023-05-10T01:02:16.158Z,14.42
2023-05-10T01:02:28.512Z,14.45
2023-05-10T01:02:41.408Z,14.46
2023-05-10T01:02:55.198Z,14.43
2023-05-10T01:03:07.448Z,14.44
2023-05-10T01:03:19.624Z,14.44
2023-05-10T01:03:32.274Z,14.42
2023-05-10T01:03:44.714Z,14.50
2023-05-10T01:03:58.050Z,14.48
2023-05-10T01:04:11.934Z,14.46
2023-05-10T01:04:26.591Z,14.44
2023-05-10T01:04:38.886Z,14.47
2023-05-10T01:04:51.154Z,14.49
2023-05-10T01:05:04.545Z,14.50
2023-05-10T01:05:16.705Z,14.49
2023-05-10T01:05:28.848Z,14.49
2023-05-10T01:05:40.846Z,14.51
2023-05-10T01:05:53.096Z,14.48
2023-05-10T01:06:06.546Z,14.52
2023-05-10T01:06:18.455Z,14.49
2023-05-10T01:06:30.418Z,14.51
2023-05-10T01:06:43.244Z,14.49
2023-05-10T01:06:55.210Z,14.49
2023-05-10T01:07:07.223Z,14.51
2023-05-10T01:07:19.230Z,14.53
2023-05-10T01:07:31.231Z,14.53
2023-05-10T01:07:43.129Z,14.53
2023-05-10T01:07:55.213Z,14.50
2023-05-10T01:08:07.760Z,14.50
2023-05-10T01:08:20.234Z,14.51
2023-05-10T01:08:32.654Z,14.46
2023-05-10T01:08:44.690Z,14.46
2023-05-10T01:08:57.206Z,14.47
2023-05-10T01:09:09.407Z,14.46
2023-05-10T01:09:22.713Z,14.48
2023-05-10T01:09:34.866Z,14.50
2023-05-10T01:09:47.063Z,14.52
2023-05-10T01:09:59.181Z,14.51
2023-05-10T01:10:11.898Z,14.47
2023-05-10T01:10:23.932Z,14.48
2023-05-10T01:10:37.062Z,14.48
2023-05-10T01:10:50.167Z,14.46
2023-05-10T01:11:03.247Z,14.48
2023-05-10T01:11:15.435Z,14.50
2023-05-10T01:11:27.661Z,14.47
2023-05-10T01:11:41.314Z,14.49
2023-05-10T01:11:54.548Z,14.52
2023-05-10T01:12:08.162Z,14.52
2023-05-10T01:12:20.561Z,14.54
2023-05-10T01:12:32.909Z,14.54
2023-05-10T01:12:47.408Z,14.53
2023-05-10T01:13:00.453Z,14.56
2023-05-10T01:13:13.800Z,14.53
2023-05-10T01:13:31.600Z,14.50
2023-05-10T01:13:47.426Z,14.55
2023-05-10T01:14:01.846Z,14.57
2023-05-10T01:14:14.415Z,14.55
2023-05-10T01:14:27.528Z,14.49
2023-05-10T01:14:39.885Z,14.46
2023-05-10T01:14:52.166Z,14.45
2023-05-10T01:15:06.189Z,14.47
2023-05-10T01:15:18.974Z,14.50
2023-05-10T01:15:32.050Z,14.51
2023-05-10T01:15:44.014Z,14.48
2023-05-10T01:15:56.685Z,14.42
2023-05-10T01:16:08.871Z,14.42
2023-05-10T01:16:21.143Z,14.32
2023-05-10T01:16:37.175Z,14.38
2023-05-10T01:16:50.323Z,14.43
2023-05-10T01:17:03.053Z,14.42
2023-05-10T01:17:16.162Z,14.46
2023-05-10T01:17:28.438Z,14.46
2023-05-10T01:17:42.609Z,14.48
2023-05-10T01:17:55.130Z,14.48
2023-05-10T01:18:09.629Z,14.47
2023-05-10T01:18:22.760Z,14.51
2023-05-10T01:18:38.956Z,14.52
2023-05-10T01:18:52.268Z,14.52
2023-05-10T01:19:35.776Z,14.52
2023-05-10T01:19:47.733Z,14.46
2023-05-10T01:20:01.005Z,14.47
2023-05-10T01:20:16.608Z,14.44
2023-05-10T01:20:37.162Z,14.46
2023-05-10T01:21:05.243Z,14.47
2023-05-10T01:21:50.639Z,14.34
2023-05-10T01:22:32.128Z,14.39
2023-05-10T01:22:53.505Z,14.39
2023-05-10T01:23:11.252Z,14.42
2023-05-10T01:23:44.178Z,14.37
2023-05-10T01:24:19.219Z,14.34
2023-05-10T01:25:06.422Z,14.43
2023-05-10T01:25:20.909Z,14.45
2023-05-10T01:25:57.541Z,14.45
2023-05-10T01:26:40.287Z,14.44
2023-05-10T01:27:10.814Z,14.44
2023-05-10T01:27:39.587Z,14.39
2023-05-10T01:28:00.571Z,14.47
2023-05-10T01:28:18.729Z,14.44
2023-05-10T01:28:57.657Z,14.44
2023-05-10T01:30:09.176Z,14.47
2023-05-10T01:30:42.848Z,14.34
2023-05-10T01:32:01.280Z,14.35
2023-05-10T01:32:16.850Z,14.29
2023-05-10T01:32:47.222Z,14.28
2023-05-10T01:33:26.837Z,14.26
2023-05-10T01:33:51.459Z,14.30
2023-05-10T01:34:05.585Z,14.24
2023-05-10T01:34:24.536Z,14.24
2023-05-10T01:34:47.208Z,14.08
2023-05-10T01:35:07.256Z,14.24
2023-05-10T01:35:34.454Z,14.29
2023-05-10T01:36:02.728Z,14.31
2023-05-10T01:36:26.921Z,14.26
2023-05-10T01:36:59.489Z,14.25
2023-05-10T01:37:22.879Z,14.30
2023-05-10T01:38:01.974Z,14.28
2023-05-10T01:38:29.398Z,14.23
2023-05-10T01:38:51.364Z,14.29
2023-05-10T01:39:04.530Z,14.25
2023-05-10T01:39:29.602Z,14.17
2023-05-10T01:39:49.378Z,14.20
2023-05-10T01:40:16.207Z,14.15
2023-05-10T01:40:43.629Z,14.21
2023-05-10T01:41:08.967Z,14.24
2023-05-10T01:41:31.539Z,14.28
2023-05-10T01:42:10.570Z,14.28
2023-05-10T01:42:26.786Z,14.28
2023-05-10T01:42:47.789Z,14.27
2023-05-10T01:43:04.908Z,14.25
2023-05-10T01:43:24.879Z,14.22
2023-05-10T01:44:04.082Z,14.27
2023-05-10T01:44:30.126Z,14.24
2023-05-10T01:45:17.071Z,14.32
2023-05-10T01:45:40.005Z,14.32
2023-05-10T01:45:57.891Z,14.35
2023-05-10T01:46:16.985Z,14.34
2023-05-10T01:46:40.545Z,14.30
2023-05-10T01:46:59.274Z,14.31
2023-05-10T01:47:15.262Z,14.28
2023-05-10T01:47:36.472Z,14.28
2023-05-10T01:47:54.725Z,14.23
2023-05-10T01:48:11.927Z,14.19
2023-05-10T01:48:26.097Z,14.25
2023-05-10T01:48:47.172Z,14.23
2023-05-10T01:49:01.776Z,14.21
2023-05-10T01:49:23.156Z,14.27
2023-05-10T01:49:44.369Z,14.31
2023-05-10T01:50:01.068Z,14.29
2023-05-10T01:50:19.709Z,14.33
2023-05-10T01:50:33.170Z,14.31
2023-05-10T01:50:47.406Z,14.32
2023-05-10T01:50:59.622Z,14.23
2023-05-10T01:51:12.126Z,14.23
2023-05-10T01:51:26.685Z,14.18
2023-05-10T01:51:48.885Z,14.14
2023-05-10T01:52:16.811Z,14.16
2023-05-10T01:52:34.407Z,14.18
2023-05-10T01:52:55.406Z,14.12
2023-05-10T01:53:11.833Z,14.08
2023-05-10T01:53:24.696Z,14.15
2023-05-10T01:53:39.829Z,14.16
2023-05-10T01:53:59.585Z,14.16
2023-05-10T01:54:14.191Z,14.17
2023-05-10T01:54:27.782Z,14.23
2023-05-10T01:54:44.086Z,14.24
2023-05-10T01:55:16.971Z,14.24
2023-05-10T01:55:33.269Z,14.28
2023-05-10T01:55:54.691Z,14.23
2023-05-10T01:56:09.212Z,14.24
2023-05-10T01:56:27.251Z,14.23
2023-05-10T01:56:41.605Z,14.26
2023-05-10T01:56:59.618Z,14.30
2023-05-10T01:57:14.737Z,14.32
2023-05-10T01:57:28.701Z,14.34
2023-05-10T01:57:43.290Z,14.32
2023-05-10T01:58:12.863Z,14.34
2023-05-10T01:58:30.200Z,14.34
2023-05-10T01:58:46.592Z,14.38
2023-05-10T01:59:01.786Z,14.36
2023-05-10T01:59:17.839Z,14.26
2023-05-10T01:59:37.812Z,14.27
2023-05-10T01:59:51.913Z,14.32
2023-05-10T02:00:05.624Z,14.34
2023-05-10T02:00:20.137Z,14.34
2023-05-10T02:00:33.279Z,14.35
2023-05-10T02:00:47.162Z,14.30
2023-05-10T02:01:02.455Z,14.31
2023-05-10T02:01:15.596Z,14.30
2023-05-10T02:01:28.244Z,14.34
2023-05-10T02:01:41.492Z,14.31
2023-05-10T02:01:55.198Z,14.32
2023-05-10T02:02:08.458Z,14.29
2023-05-10T02:02:22.197Z,14.25
2023-05-10T02:02:38.199Z,14.21
2023-05-10T02:02:51.546Z,14.21
2023-05-10T02:03:07.656Z,14.20
2023-05-10T02:03:22.915Z,14.23
2023-05-10T02:03:37.555Z,14.26
2023-05-10T02:03:51.854Z,14.34
2023-05-10T02:04:04.745Z,14.40
2023-05-10T02:04:18.365Z,14.41
2023-05-10T02:04:32.149Z,14.40
2023-05-10T02:04:45.977Z,14.37
2023-05-10T02:04:59.084Z,14.38
2023-05-10T02:05:14.256Z,14.36
2023-05-10T02:05:28.271Z,14.42
2023-05-10T02:05:42.245Z,14.42
2023-05-10T02:05:55.381Z,14.37
2023-05-10T02:06:09.654Z,14.35
2023-05-10T02:06:23.473Z,14.34
2023-05-10T02:06:36.568Z,14.34
2023-05-10T02:06:52.404Z,14.25
2023-05-10T02:07:05.578Z,14.21
2023-05-10T02:07:18.550Z,14.21
2023-05-10T02:07:33.163Z,14.25
2023-05-10T02:07:46.443Z,14.25
2023-05-10T02:07:59.833Z,14.26
2023-05-10T02:08:12.948Z,14.27
2023-05-10T02:08:28.459Z,14.29
2023-05-10T02:08:42.089Z,14.26
2023-05-10T02:08:56.121Z,14.30
2023-05-10T02:09:09.937Z,14.29
2023-05-10T02:09:23.705Z,14.25
2023-05-10T02:09:37.856Z,14.31
2023-05-10T02:09:50.707Z,14.31
2023-05-10T02:10:08.193Z,14.30
2023-05-10T02:10:21.166Z,14.30
2023-05-10T02:10:35.250Z,14.32
2023-05-10T02:10:51.549Z,14.37
2023-05-10T02:11:06.489Z,14.30
2023-05-10T02:11:20.519Z,14.34
2023-05-10T02:11:33.614Z,14.32
2023-05-10T02:11:46.163Z,14.31
2023-05-10T02:12:00.846Z,14.29
2023-05-10T02:12:14.682Z,14.28
2023-05-10T02:12:28.181Z,14.29
2023-05-10T02:12:45.889Z,14.29
2023-05-10T02:13:00.756Z,14.36
2023-05-10T02:13:14.992Z,14.39
2023-05-10T02:13:28.791Z,14.32
2023-05-10T02:13:42.956Z,14.35
2023-05-10T02:13:58.156Z,14.35
2023-05-10T02:14:12.093Z,14.31
2023-05-10T02:14:25.791Z,14.34
2023-05-10T02:14:38.270Z,14.34
2023-05-10T02:14:53.656Z,14.37
2023-05-10T02:15:07.525Z,14.34
2023-05-10T02:15:23.444Z,14.29
2023-05-10T02:15:37.328Z,14.34
2023-05-10T02:15:50.647Z,14.33
2023-05-10T02:16:04.410Z,14.35
2023-05-10T02:16:18.090Z,14.37
2023-05-10T02:16:31.868Z,14.38
2023-05-10T02:16:44.566Z,14.38
2023-05-10T02:16:57.867Z,14.40
2023-05-10T02:17:13.373Z,14.38
2023-05-10T02:17:25.951Z,14.39
2023-05-10T02:17:39.694Z,14.43
2023-05-10T02:17:55.079Z,14.45
2023-05-10T02:18:08.455Z,14.44
2023-05-10T02:18:20.913Z,14.43
2023-05-10T02:18:35.006Z,14.44
2023-05-10T02:18:49.181Z,14.46
2023-05-10T02:19:03.063Z,14.44
2023-05-10T02:19:16.380Z,14.46
2023-05-10T02:19:31.095Z,14.47
2023-05-10T02:19:44.695Z,14.44
2023-05-10T02:19:58.581Z,14.39
2023-05-10T02:20:12.420Z,14.44
2023-05-10T02:20:26.419Z,14.43
2023-05-10T02:20:39.445Z,14.43
2023-05-10T02:20:54.755Z,14.43
2023-05-10T02:21:07.658Z,14.39
2023-05-10T02:21:22.541Z,14.36
2023-05-10T02:21:34.595Z,14.38
2023-05-10T02:21:47.475Z,14.41
2023-05-10T02:22:01.487Z,14.45
2023-05-10T02:22:14.255Z,14.46
2023-05-10T02:22:28.366Z,14.35
2023-05-10T02:22:43.640Z,14.33
2023-05-10T02:22:58.389Z,14.36
2023-05-10T02:23:10.903Z,14.40
2023-05-10T02:23:24.599Z,14.39
2023-05-10T02:23:37.606Z,14.40
2023-05-10T02:23:53.012Z,14.42
2023-05-10T02:24:06.337Z,14.45
2023-05-10T02:24:20.199Z,14.48
2023-05-10T02:24:34.632Z,14.52
2023-05-10T02:24:49.183Z,14.52
2023-05-10T02:25:02.208Z,14.51
2023-05-10T02:25:16.576Z,14.51
2023-05-10T02:25:30.812Z,14.51
2023-05-10T02:25:44.792Z,14.49
2023-05-10T02:25:58.833Z,14.48
2023-05-10T02:26:12.826Z,14.48
2023-05-10T02:26:26.156Z,14.44
2023-05-10T02:26:39.487Z,14.44
2023-05-10T02:26:54.771Z,14.42
2023-05-10T02:27:07.834Z,14.47
2023-05-10T02:27:20.928Z,14.46
2023-05-10T02:27:34.545Z,14.41
2023-05-10T02:27:47.904Z,14.40
2023-05-10T02:28:02.962Z,14.41
2023-05-10T02:28:16.366Z,14.42
2023-05-10T02:28:30.206Z,14.43
2023-05-10T02:28:43.959Z,14.46
2023-05-10T02:28:59.200Z,14.44
2023-05-10T02:29:13.279Z,14.49
2023-05-10T02:29:27.735Z,14.42
2023-05-10T02:29:40.269Z,14.42
2023-05-10T02:29:53.281Z,14.45
2023-05-10T02:30:07.410Z,14.45
2023-05-10T02:30:20.179Z,14.47
2023-05-10T02:30:34.784Z,14.45
2023-05-10T02:30:48.456Z,14.43
2023-05-10T02:31:00.889Z,14.42
2023-05-10T02:31:15.701Z,14.45
2023-05-10T02:31:27.916Z,14.47
2023-05-10T02:31:40.200Z,14.47
2023-05-10T02:31:56.583Z,14.45
2023-05-10T02:32:11.044Z,14.51
2023-05-10T02:32:26.916Z,14.52
2023-05-10T02:32:39.843Z,14.50
2023-05-10T02:32:53.238Z,14.54
2023-05-10T02:33:07.234Z,14.57
2023-05-10T02:33:20.761Z,14.55
2023-05-10T02:33:35.217Z,14.58
2023-05-10T02:33:47.940Z,14.58
2023-05-10T02:34:02.339Z,14.60
2023-05-10T02:34:14.609Z,14.59
2023-05-10T02:34:28.470Z,14.57
2023-05-10T02:34:41.096Z,14.56
2023-05-10T02:34:54.099Z,14.57
2023-05-10T02:35:07.107Z,14.61
2023-05-10T02:35:20.191Z,14.60
2023-05-10T02:35:34.447Z,14.52
2023-05-10T02:35:51.708Z,14.54
2023-05-10T02:36:04.926Z,14.55
2023-05-10T02:36:19.341Z,14.57
2023-05-10T02:36:32.320Z,14.61
2023-05-10T02:36:44.707Z,14.63
2023-05-10T02:36:57.636Z,14.61
2023-05-10T02:37:11.417Z,14.60
2023-05-10T02:37:24.292Z,14.60
2023-05-10T02:37:38.338Z,14.65
2023-05-10T02:37:51.541Z,14.69
2023-05-10T02:38:05.235Z,14.64
2023-05-10T02:38:20.059Z,14.65
2023-05-10T02:38:34.101Z,14.63
2023-05-10T02:38:49.219Z,14.52
2023-05-10T02:39:03.307Z,14.43
2023-05-10T02:39:16.496Z,14.41
2023-05-10T02:39:30.485Z,14.41
2023-05-10T02:39:44.842Z,14.37
2023-05-10T02:39:59.783Z,14.38
2023-05-10T02:40:14.026Z,14.47
2023-05-10T02:40:28.766Z,14.48
2023-05-10T02:40:42.330Z,14.54
2023-05-10T02:40:55.090Z,14.53
2023-05-10T02:41:09.502Z,14.54
2023-05-10T02:41:23.742Z,14.58
2023-05-10T02:41:36.408Z,14.57
2023-05-10T02:41:50.081Z,14.59
2023-05-10T02:42:03.276Z,14.61
2023-05-10T02:42:20.691Z,14.64
2023-05-10T02:42:36.868Z,14.64
2023-05-10T02:42:51.418Z,14.61
2023-05-10T02:43:05.030Z,14.61
2023-05-10T02:43:18.189Z,14.61
2023-05-10T02:43:33.187Z,14.63
2023-05-10T02:43:46.441Z,14.65
2023-05-10T02:44:02.236Z,14.59
2023-05-10T02:44:16.614Z,14.61
2023-05-10T02:44:32.060Z,14.62
2023-05-10T02:44:46.429Z,14.60
2023-05-10T02:45:02.333Z,14.57
2023-05-10T02:45:21.396Z,14.61
2023-05-10T02:45:34.416Z,14.67
2023-05-10T02:45:49.101Z,14.65
2023-05-10T02:46:01.574Z,14.66
2023-05-10T02:46:13.638Z,14.67
2023-05-10T02:46:25.840Z,14.73
2023-05-10T02:46:38.616Z,14.73
2023-05-10T02:46:50.856Z,14.70
2023-05-10T02:47:03.144Z,14.74
2023-05-10T02:47:15.207Z,14.76
2023-05-10T02:47:28.300Z,14.78
2023-05-10T02:47:40.494Z,14.75
2023-05-10T02:47:53.092Z,14.70
2023-05-10T02:48:05.747Z,14.68
2023-05-10T02:48:19.969Z,14.69
2023-05-10T02:48:32.163Z,14.72
2023-05-10T02:48:44.229Z,14.72
2023-05-10T02:48:56.248Z,14.66
2023-05-10T02:49:08.420Z,14.69
2023-05-10T02:49:20.519Z,14.69
2023-05-10T02:49:32.467Z,14.69
2023-05-10T02:49:44.529Z,14.74
2023-05-10T02:49:56.714Z,14.75
2023-05-10T02:50:09.242Z,14.78
2023-05-10T02:50:22.449Z,14.80
2023-05-10T02:50:34.924Z,14.76
2023-05-10T02:50:52.125Z,14.69
2023-05-10T02:51:07.963Z,14.73
2023-05-10T02:51:21.839Z,14.76
2023-05-10T02:51:37.291Z,14.77
2023-05-10T02:51:57.678Z,14.76
2023-05-10T02:52:10.404Z,14.79
2023-05-10T02:52:37.001Z,14.80
2023-05-10T02:52:55.038Z,14.80
2023-05-10T02:53:12.612Z,14.70
2023-05-10T02:53:35.247Z,14.62
2023-05-10T02:53:50.351Z,14.62
2023-05-10T02:54:14.112Z,14.53
2023-05-10T02:54:36.783Z,14.47
2023-05-10T02:54:53.289Z,14.53
2023-05-10T02:55:06.847Z,14.54
2023-05-10T02:55:23.370Z,14.59
2023-05-10T02:55:39.864Z,14.63
2023-05-10T02:55:53.687Z,14.66
2023-05-10T02:56:12.740Z,14.68
2023-05-10T02:56:32.645Z,14.62
2023-05-10T02:56:54.750Z,14.59
2023-05-10T02:57:08.270Z,14.63
2023-05-10T02:57:26.311Z,14.61
2023-05-10T02:57:44.089Z,14.55
2023-05-10T02:58:00.070Z,14.55
2023-05-10T02:58:12.072Z,14.58
2023-05-10T02:58:24.089Z,14.60
2023-05-10T02:58:36.429Z,14.64
2023-05-10T02:58:48.499Z,14.66
2023-05-10T02:59:00.552Z,14.64
2023-05-10T02:59:12.438Z,14.68
2023-05-10T02:59:24.423Z,14.66
2023-05-10T02:59:36.449Z,14.69
2023-05-10T02:59:48.541Z,14.66
2023-05-10T03:00:01.877Z,14.70
2023-05-10T03:00:14.069Z,14.70
2023-05-10T03:00:26.766Z,14.66
2023-05-10T03:00:38.747Z,14.67
2023-05-10T03:00:50.663Z,14.66
2023-05-10T03:01:02.626Z,14.71
2023-05-10T03:01:14.618Z,14.71
2023-05-10T03:01:26.652Z,14.76
2023-05-10T03:01:38.697Z,14.74
2023-05-10T03:01:50.731Z,14.72
2023-05-10T03:02:03.348Z,14.77
2023-05-10T03:02:16.475Z,14.80
2023-05-10T03:02:29.030Z,14.80
2023-05-10T03:02:41.520Z,14.69
2023-05-10T03:02:54.096Z,14.67
2023-05-10T03:03:06.158Z,14.68
2023-05-10T03:03:18.070Z,14.73
2023-05-10T03:03:29.999Z,14.78
2023-05-10T03:03:42.013Z,14.78
2023-05-10T03:03:54.492Z,14.82
2023-05-10T03:04:07.196Z,14.85
2023-05-10T03:04:19.515Z,14.85
2023-05-10T03:04:31.638Z,14.84
2023-05-10T03:04:43.867Z,14.87
2023-05-10T03:04:55.881Z,14.88
2023-05-10T03:05:08.285Z,14.81
2023-05-10T03:05:20.607Z,14.85
2023-05-10T03:05:32.713Z,14.76
2023-05-10T03:05:44.613Z,14.80
2023-05-10T03:05:57.460Z,14.76
2023-05-10T03:06:10.471Z,14.80
2023-05-10T03:06:22.480Z,14.77
2023-05-10T03:06:34.494Z,14.81
2023-05-10T03:06:46.561Z,14.83
2023-05-10T03:06:59.058Z,14.85